createdAt,value
2018-07-04T00:01:04.151Z,58.40
2018-07-04T00:03:51.964Z,57.80
2018-07-04T00:06:38.912Z,58.30
2018-07-04T00:09:26.131Z,58.90
2018-07-04T00:12:13.096Z,58.50
2018-07-04T00:15:00.614Z,58.80
2018-07-04T00:17:48.315Z,58.80
2018-07-04T00:20:40.100Z,58.90
2018-07-04T00:23:27.333Z,59.20
2018-07-04T00:26:17.968Z,59.20
2018-07-04T00:29:04.834Z,59.50
2018-07-04T00:31:53.441Z,59.60
2018-07-04T00:34:41.021Z,59.70
2018-07-04T00:37:28.877Z,60.40
2018-07-04T00:40:15.564Z,60.00
2018-07-04T00:43:02.376Z,60.20
2018-07-04T00:45:49.578Z,59.80
2018-07-04T00:48:37.305Z,60.40
2018-07-04T00:51:24.303Z,60.10
2018-07-04T00:54:11.531Z,60.10
2018-07-04T00:56:58.801Z,60.30
2018-07-04T00:59:45.636Z,60.50
2018-07-04T01:02:32.095Z,60.60
2018-07-04T01:05:19.192Z,61.40
2018-07-04T01:10:48.003Z,61.60
2018-07-04T01:13:35.407Z,61.90
2018-07-04T01:16:22.474Z,61.60
2018-07-04T01:19:09.616Z,61.80
2018-07-04T01:21:56.409Z,61.40
2018-07-04T01:24:44.309Z,61.40
2018-07-04T01:27:31.629Z,61.70
2018-07-04T01:30:20.832Z,62.30
2018-07-04T01:33:07.995Z,62.50
2018-07-04T01:35:54.962Z,62.10
2018-07-04T01:38:41.785Z,62.60
2018-07-04T01:41:28.870Z,63.20
2018-07-04T01:44:16.119Z,63.50
2018-07-04T01:47:03.291Z,65.00
2018-07-04T01:49:51.484Z,65.50
2018-07-04T01:52:38.461Z,65.80
2018-07-04T01:55:25.739Z,65.90
2018-07-04T02:00:53.888Z,66.20
2018-07-04T02:03:41.292Z,66.20
2018-07-04T02:06:28.463Z,66.60
2018-07-04T02:09:15.288Z,67.20
2018-07-04T02:12:03.753Z,68.90
2018-07-04T02:14:50.593Z,69.10
2018-07-04T02:17:38.041Z,69.50
2018-07-04T02:20:25.672Z,70.90
2018-07-04T02:23:13.439Z,72.00
2018-07-04T02:26:00.303Z,73.90
2018-07-04T02:28:47.783Z,75.00
2018-07-04T02:31:34.476Z,78.90
2018-07-04T02:34:26.610Z,79.10
2018-07-04T02:37:14.471Z,81.90
2018-07-04T02:40:02.188Z,83.80
2018-07-04T02:42:49.136Z,87.10
2018-07-04T02:45:37.690Z,88.80
2018-07-04T02:48:24.559Z,90.20
2018-07-04T02:51:11.454Z,90.80
2018-07-04T02:53:59.257Z,91.10
2018-07-04T02:56:46.404Z,92.30
2018-07-04T02:59:33.485Z,92.50
2018-07-04T03:02:20.373Z,92.70
2018-07-04T03:05:08.032Z,93.60
2018-07-04T03:10:36.329Z,97.40
2018-07-04T03:16:06.269Z,96.50
2018-07-04T03:18:54.519Z,96.50
2018-07-04T03:21:41.299Z,99.60
2018-07-04T03:24:35.089Z,99.90
2018-07-04T03:27:22.426Z,99.90
2018-07-04T03:30:10.538Z,99.90
2018-07-04T03:32:57.757Z,99.90
2018-07-04T03:35:45.889Z,99.90
2018-07-04T03:38:33.056Z,99.90
2018-07-04T03:41:19.923Z,99.90
2018-07-04T03:44:07.866Z,99.90
2018-07-04T03:46:54.845Z,99.90
2018-07-04T03:49:41.840Z,99.90
2018-07-04T03:52:28.624Z,99.90
2018-07-04T03:55:15.707Z,99.90
2018-07-04T03:58:02.873Z,99.90
2018-07-04T04:00:49.521Z,99.90
2018-07-04T04:06:17.241Z,99.90
2018-07-04T04:09:04.281Z,99.90
2018-07-04T04:11:51.253Z,99.90
2018-07-04T04:14:38.862Z,99.90
2018-07-04T04:17:25.775Z,99.90
2018-07-04T04:20:12.706Z,99.90
2018-07-04T04:22:59.334Z,99.90
2018-07-04T04:25:46.452Z,99.90
2018-07-04T04:28:33.660Z,99.90
2018-07-04T04:31:22.153Z,99.90
2018-07-04T04:34:08.961Z,99.90
2018-07-04T04:36:55.969Z,99.90
2018-07-04T04:39:42.557Z,99.90
2018-07-04T04:42:29.297Z,99.90
2018-07-04T04:45:16.277Z,99.90
2018-07-04T04:48:02.987Z,99.90
2018-07-04T04:50:49.523Z,99.90
2018-07-04T04:53:36.133Z,99.90
2018-07-04T04:56:22.737Z,99.90
2018-07-04T04:59:10.479Z,99.90
2018-07-04T05:01:58.415Z,99.90
2018-07-04T05:04:46.342Z,99.90
2018-07-04T05:07:34.372Z,99.90
2018-07-04T05:10:22.486Z,99.90
2018-07-04T05:13:09.330Z,99.90
2018-07-04T05:15:56.233Z,99.90
2018-07-04T05:18:43.644Z,99.90
2018-07-04T05:21:30.391Z,99.90
2018-07-04T05:24:17.390Z,97.90
2018-07-04T05:27:04.540Z,98.40
2018-07-04T05:29:51.476Z,98.80
2018-07-04T05:32:38.484Z,98.40
2018-07-04T05:35:25.254Z,94.40
2018-07-04T05:38:12.193Z,96.00
2018-07-04T05:40:59.701Z,93.60
2018-07-04T05:43:46.828Z,90.90
2018-07-04T05:46:33.587Z,89.50
2018-07-04T05:49:20.557Z,77.60
2018-07-04T05:52:07.381Z,75.50
2018-07-04T05:54:55.081Z,71.70
2018-07-04T05:57:41.825Z,58.30
2018-07-04T06:00:28.938Z,55.30
2018-07-04T06:03:15.912Z,56.40
2018-07-04T06:06:03.283Z,50.00
2018-07-04T06:08:50.150Z,47.60
2018-07-04T06:11:37.195Z,46.60
2018-07-04T06:14:24.218Z,47.00
2018-07-04T06:17:11.700Z,46.00
2018-07-04T06:19:58.266Z,45.10
2018-07-04T06:22:44.805Z,44.70
2018-07-04T06:25:32.901Z,43.60
2018-07-04T06:28:21.175Z,43.30
2018-07-04T06:31:07.797Z,42.50
2018-07-04T06:33:55.621Z,42.70
2018-07-04T06:36:42.619Z,42.80
2018-07-04T06:39:18.000Z,43.10
2018-07-04T06:41:46.159Z,42.00
2018-07-04T06:44:14.328Z,43.10
2018-07-04T06:46:42.338Z,43.70
2018-07-04T06:49:10.455Z,42.80
2018-07-04T06:51:39.780Z,43.70
2018-07-04T06:54:08.109Z,42.00
2018-07-04T06:59:04.457Z,42.80
2018-07-04T07:01:33.179Z,42.30
2018-07-04T07:04:13.834Z,40.80
2018-07-04T07:07:01.565Z,40.80
2018-07-04T07:09:48.532Z,41.60
2018-07-04T07:12:36.333Z,41.10
2018-07-04T07:15:23.187Z,40.00
2018-07-04T07:18:11.236Z,39.60
2018-07-04T07:20:58.326Z,39.40
2018-07-04T07:23:45.258Z,38.40
2018-07-04T07:26:32.114Z,38.20
2018-07-04T07:29:18.774Z,39.10
2018-07-04T07:32:05.517Z,39.80
2018-07-04T07:34:53.894Z,40.50
2018-07-04T07:37:40.695Z,41.20
2018-07-04T07:40:27.575Z,40.80
2018-07-04T07:43:15.028Z,41.30
2018-07-04T07:46:01.878Z,39.30
2018-07-04T07:48:48.694Z,39.00
2018-07-04T07:51:36.100Z,39.40
2018-07-04T07:54:22.998Z,39.20
2018-07-04T07:57:10.087Z,38.70
2018-07-04T07:59:56.833Z,38.20
2018-07-04T08:02:43.705Z,37.80
2018-07-04T08:05:31.050Z,38.30
2018-07-04T08:08:18.081Z,38.20
2018-07-04T08:11:05.127Z,37.70
2018-07-04T08:13:53.249Z,37.40
2018-07-04T08:16:40.141Z,38.20
2018-07-04T08:22:07.317Z,38.20
2018-07-04T08:24:55.174Z,36.90
2018-07-04T08:27:42.772Z,37.70
2018-07-04T08:30:30.243Z,36.40
2018-07-04T08:33:17.255Z,35.80
2018-07-04T08:36:04.480Z,35.80
2018-07-04T08:38:51.834Z,35.20
2018-07-04T08:41:39.598Z,35.10
2018-07-04T08:44:25.975Z,35.50
2018-07-04T08:47:12.656Z,36.00
2018-07-04T08:49:59.247Z,36.30
2018-07-04T08:52:46.008Z,37.30
2018-07-04T08:55:32.653Z,37.90
2018-07-04T08:58:19.138Z,36.30
2018-07-04T09:01:06.097Z,35.60
2018-07-04T09:03:52.864Z,35.30
2018-07-04T09:06:39.361Z,34.10
2018-07-04T09:09:25.975Z,34.30
2018-07-04T09:12:12.658Z,34.40
2018-07-04T09:14:59.092Z,34.20
2018-07-04T09:17:45.436Z,33.90
2018-07-04T09:20:32.033Z,32.40
2018-07-04T09:23:18.807Z,32.40
2018-07-04T09:26:05.215Z,33.10
2018-07-04T09:28:51.974Z,32.50
2018-07-04T09:31:38.600Z,32.90
2018-07-04T09:34:25.130Z,31.80
2018-07-04T09:37:11.711Z,30.80
2018-07-04T09:39:58.219Z,31.00
2018-07-04T09:42:45.087Z,31.00
2018-07-04T09:45:31.859Z,30.30
2018-07-04T09:48:18.546Z,30.80
2018-07-04T09:51:04.909Z,30.60
2018-07-04T09:53:51.509Z,30.80
2018-07-04T09:56:38.114Z,30.30
2018-07-04T09:59:25.087Z,30.00
2018-07-04T10:02:11.681Z,29.50
2018-07-04T10:04:58.322Z,30.00
2018-07-04T10:07:44.957Z,30.10
2018-07-04T10:10:31.301Z,29.40
2018-07-04T10:13:17.704Z,28.80
2018-07-04T10:16:04.749Z,28.60
2018-07-04T10:18:51.343Z,28.10
2018-07-04T10:21:37.823Z,28.20
2018-07-04T10:24:24.388Z,28.00
2018-07-04T10:27:10.996Z,27.70
2018-07-04T10:29:57.730Z,28.40
2018-07-04T10:32:44.469Z,28.70
2018-07-04T10:35:31.111Z,29.70
2018-07-04T10:38:17.872Z,30.10
2018-07-04T10:43:44.830Z,30.00
2018-07-04T10:46:31.606Z,28.90
2018-07-04T10:49:18.244Z,28.30
2018-07-04T10:52:04.945Z,27.30
2018-07-04T10:54:51.805Z,26.90
2018-07-04T10:57:38.210Z,27.20
2018-07-04T11:00:25.314Z,25.60
2018-07-04T11:03:11.838Z,24.80
2018-07-04T11:05:58.460Z,24.40
2018-07-04T11:08:45.008Z,24.40
2018-07-04T11:11:31.483Z,24.30
2018-07-04T11:14:17.893Z,24.00
2018-07-04T11:17:04.706Z,25.60
2018-07-04T11:19:51.526Z,26.80
2018-07-04T11:22:38.082Z,27.20
2018-07-04T11:25:25.001Z,26.70
2018-07-04T11:28:11.484Z,26.90
2018-07-04T11:30:58.104Z,25.80
2018-07-04T11:33:44.646Z,26.40
2018-07-04T11:36:31.251Z,23.90
2018-07-04T11:39:17.879Z,23.30
2018-07-04T11:42:04.687Z,24.10
2018-07-04T11:44:51.436Z,23.70
2018-07-04T11:47:25.601Z,23.50
2018-07-04T11:49:53.824Z,23.90
2018-07-04T11:52:21.668Z,23.70
2018-07-04T11:54:49.532Z,23.80
2018-07-04T11:57:17.412Z,23.00
2018-07-04T11:59:45.298Z,22.50
2018-07-04T12:02:13.146Z,22.30
2018-07-04T12:04:53.618Z,21.80
2018-07-04T12:07:27.611Z,21.70
2018-07-04T12:09:55.452Z,21.30
2018-07-04T12:12:23.324Z,21.40
2018-07-04T12:14:51.151Z,21.20
2018-07-04T12:17:19.028Z,21.00
2018-07-04T12:19:46.836Z,21.30
2018-07-04T12:22:14.652Z,21.70
2018-07-04T12:24:42.484Z,21.60
2018-07-04T12:27:10.294Z,21.50
2018-07-04T12:29:38.108Z,21.40
2018-07-04T12:32:05.983Z,22.20
2018-07-04T12:34:33.920Z,21.60
2018-07-04T12:37:01.744Z,21.90
2018-07-04T12:39:29.597Z,20.80
2018-07-04T12:41:57.435Z,20.90
2018-07-04T12:44:25.304Z,21.40
2018-07-04T12:46:53.203Z,21.40
2018-07-04T12:49:26.841Z,22.10
2018-07-04T12:51:55.117Z,21.50
2018-07-04T12:54:28.381Z,21.70
2018-07-04T12:57:08.900Z,22.30
2018-07-04T12:59:55.732Z,21.80
2018-07-04T13:02:42.456Z,21.80
2018-07-04T13:05:29.094Z,21.00
2018-07-04T13:08:15.762Z,21.80
2018-07-04T13:11:02.277Z,21.50
2018-07-04T13:13:48.773Z,21.60
2018-07-04T13:16:35.107Z,21.50
2018-07-04T13:19:22.031Z,21.70
2018-07-04T13:22:08.641Z,21.20
2018-07-04T13:24:55.196Z,21.50
2018-07-04T13:27:41.743Z,21.20
2018-07-04T13:30:28.298Z,21.10
2018-07-04T13:33:14.838Z,20.70
2018-07-04T13:36:01.165Z,20.60
2018-07-04T13:38:47.589Z,20.90
2018-07-04T13:41:34.077Z,21.20
2018-07-04T13:44:20.732Z,21.60
2018-07-04T13:47:07.248Z,22.10
2018-07-04T13:49:53.750Z,21.50
2018-07-04T13:52:40.534Z,22.40
2018-07-04T13:55:27.145Z,22.40
2018-07-04T13:58:13.531Z,21.40
2018-07-04T14:01:00.029Z,21.50
2018-07-04T14:03:46.588Z,21.40
2018-07-04T14:06:33.092Z,21.50
2018-07-04T14:09:19.839Z,22.20
2018-07-04T14:12:06.304Z,22.40
2018-07-04T14:14:53.305Z,23.20
2018-07-04T14:17:39.895Z,23.20
2018-07-04T14:20:26.538Z,23.10
2018-07-04T14:23:13.024Z,23.10
2018-07-04T14:25:59.660Z,23.40
2018-07-04T14:28:46.105Z,23.70
2018-07-04T14:31:32.479Z,24.10
2018-07-04T14:34:19.637Z,24.20
2018-07-04T14:37:06.285Z,25.40
2018-07-04T14:39:52.982Z,25.80
2018-07-04T14:42:39.626Z,26.60
2018-07-04T14:48:06.485Z,27.60
2018-07-04T14:50:53.342Z,27.90
2018-07-04T14:53:40.287Z,28.20
2018-07-04T14:56:26.826Z,28.30
2018-07-04T14:59:13.495Z,28.30
2018-07-04T15:01:59.964Z,28.30
2018-07-04T15:04:47.036Z,28.20
2018-07-04T15:07:33.905Z,27.80
2018-07-04T15:10:20.673Z,28.20
2018-07-04T15:13:07.348Z,28.90
2018-07-04T15:15:54.018Z,28.60
2018-07-04T15:18:40.911Z,28.60
2018-07-04T15:21:27.661Z,28.40
2018-07-04T15:24:14.318Z,28.90
2018-07-04T15:27:00.915Z,28.60
2018-07-04T15:29:47.786Z,28.60
2018-07-04T15:32:34.324Z,28.60
2018-07-04T15:35:20.797Z,29.10
2018-07-04T15:38:07.358Z,29.30
2018-07-04T15:40:54.163Z,30.00
2018-07-04T15:43:40.656Z,29.50
2018-07-04T15:49:10.558Z,29.20
2018-07-04T15:51:56.931Z,29.20
2018-07-04T15:54:43.576Z,29.60
2018-07-04T15:57:30.078Z,29.60
2018-07-04T16:00:16.491Z,29.80
2018-07-04T16:03:03.102Z,30.00
2018-07-04T16:05:49.681Z,31.00
2018-07-04T16:08:36.044Z,30.20
2018-07-04T16:11:22.428Z,29.70
2018-07-04T16:14:08.818Z,30.50
2018-07-04T16:16:55.234Z,30.90
2018-07-04T16:19:41.827Z,29.70
2018-07-04T16:22:28.652Z,31.90
2018-07-04T16:25:15.245Z,31.70
2018-07-04T16:28:01.941Z,29.90
2018-07-04T16:30:48.583Z,29.70
2018-07-04T16:33:35.070Z,29.90
2018-07-04T16:36:21.541Z,30.00
2018-07-04T16:39:08.001Z,30.30
2018-07-04T16:41:54.531Z,30.00
2018-07-04T16:44:40.915Z,30.50
2018-07-04T16:47:27.401Z,30.30
2018-07-04T16:50:14.642Z,30.10
2018-07-04T16:53:00.952Z,31.60
2018-07-04T16:55:47.602Z,32.10
2018-07-04T16:58:34.217Z,30.30
2018-07-04T17:01:20.729Z,30.20
2018-07-04T17:04:07.244Z,30.50
2018-07-04T17:06:54.001Z,31.20
2018-07-04T17:09:40.602Z,31.80
2018-07-04T17:12:27.146Z,30.70
2018-07-04T17:15:13.655Z,31.70
2018-07-04T17:18:00.219Z,30.10
2018-07-04T17:20:46.820Z,31.70
2018-07-04T17:23:33.611Z,31.40
2018-07-04T17:26:20.273Z,30.30
2018-07-04T17:29:06.761Z,29.50
2018-07-04T17:31:53.397Z,29.40
2018-07-04T17:34:39.900Z,30.60
2018-07-04T17:37:26.543Z,31.10
2018-07-04T17:40:13.106Z,29.60
2018-07-04T17:42:59.582Z,31.30
2018-07-04T17:45:46.119Z,32.50
2018-07-04T17:48:32.583Z,30.00
2018-07-04T17:51:19.289Z,29.30
2018-07-04T17:54:05.930Z,29.30
2018-07-04T17:56:52.472Z,31.00
2018-07-04T17:59:38.956Z,29.90
2018-07-04T18:02:25.450Z,30.10
2018-07-04T18:05:12.069Z,31.70
2018-07-04T18:07:58.382Z,31.20
2018-07-04T18:10:44.904Z,29.30
2018-07-04T18:13:31.600Z,29.90
2018-07-04T18:16:18.133Z,30.00
2018-07-04T18:19:04.708Z,30.70
2018-07-04T18:21:50.942Z,32.10
2018-07-04T18:24:37.443Z,32.00
2018-07-04T18:27:23.910Z,32.10
2018-07-04T18:30:10.242Z,32.30
2018-07-04T18:32:56.737Z,31.40
2018-07-04T18:35:43.353Z,31.80
2018-07-04T18:38:29.749Z,32.50
2018-07-04T18:41:16.316Z,33.90
2018-07-04T18:44:02.938Z,32.60
2018-07-04T18:46:49.675Z,32.80
2018-07-04T18:49:36.252Z,33.00
2018-07-04T18:52:22.744Z,33.30
2018-07-04T18:55:09.465Z,33.20
2018-07-04T18:57:55.924Z,34.40
2018-07-04T19:00:42.657Z,33.80
2018-07-04T19:03:29.340Z,34.90
2018-07-04T19:06:15.862Z,34.00
2018-07-04T19:09:02.504Z,34.80
2018-07-04T19:11:49.257Z,35.30
2018-07-04T19:14:35.847Z,35.70
2018-07-04T19:17:22.482Z,35.90
2018-07-04T19:20:09.134Z,36.40
2018-07-04T19:22:55.745Z,36.80
2018-07-04T19:25:42.466Z,37.10
2018-07-04T19:28:29.263Z,37.40
2018-07-04T19:31:15.843Z,37.80
2018-07-04T19:34:02.480Z,38.20
2018-07-04T19:36:48.830Z,38.70
2018-07-04T19:39:35.500Z,39.00
2018-07-04T19:42:22.438Z,39.30
2018-07-04T19:45:09.106Z,39.60
2018-07-04T19:47:55.877Z,40.10
2018-07-04T19:50:43.283Z,40.40
2018-07-04T19:53:30.046Z,41.10
2018-07-04T19:56:16.879Z,41.00
2018-07-04T19:59:03.601Z,41.60
2018-07-04T20:01:50.148Z,42.00
2018-07-04T20:04:36.757Z,42.50
2018-07-04T20:07:23.484Z,42.70
2018-07-04T20:10:10.264Z,42.90
2018-07-04T20:12:58.008Z,42.80
2018-07-04T20:15:44.427Z,43.20
2018-07-04T20:18:31.097Z,43.40
2018-07-04T20:21:17.674Z,43.50
2018-07-04T20:24:04.483Z,43.80
2018-07-04T20:26:50.904Z,44.20
2018-07-04T20:29:37.387Z,44.10
2018-07-04T20:32:23.986Z,45.00
2018-07-04T20:35:10.779Z,44.90
2018-07-04T20:37:57.240Z,45.50
2018-07-04T20:40:43.687Z,45.00
2018-07-04T20:43:30.425Z,45.40
2018-07-04T20:46:17.165Z,44.80
2018-07-04T20:49:03.584Z,45.00
2018-07-04T20:51:50.292Z,45.30
2018-07-04T20:54:36.999Z,45.50
2018-07-04T20:57:23.815Z,45.30
2018-07-04T21:00:10.348Z,45.00
2018-07-04T21:02:56.830Z,44.90
2018-07-04T21:05:43.384Z,45.40
2018-07-04T21:08:29.643Z,45.30
2018-07-04T21:11:17.999Z,45.50
2018-07-04T21:14:04.486Z,45.70
2018-07-04T21:16:50.879Z,46.10
2018-07-04T21:19:37.343Z,46.00
2018-07-04T21:22:23.659Z,46.00
2018-07-04T21:25:10.104Z,46.90
2018-07-04T21:27:56.679Z,46.90
2018-07-04T21:30:43.206Z,47.30
2018-07-04T21:33:29.687Z,47.90
2018-07-04T21:36:15.930Z,48.20
2018-07-04T21:39:02.847Z,49.50
2018-07-04T21:41:49.392Z,49.60
2018-07-04T21:44:36.017Z,50.10
2018-07-04T21:47:22.773Z,50.10
2018-07-04T21:50:09.161Z,49.80
2018-07-04T21:52:55.907Z,50.10
2018-07-04T21:55:42.408Z,50.30
2018-07-04T21:58:28.819Z,51.30
2018-07-04T22:01:15.418Z,51.50
2018-07-04T22:04:02.131Z,52.10
2018-07-04T22:06:49.064Z,52.20
2018-07-04T22:09:35.763Z,52.80
2018-07-04T22:12:22.251Z,52.50
2018-07-04T22:17:48.921Z,52.50
2018-07-04T22:20:35.787Z,52.80
2018-07-04T22:23:22.196Z,53.30
2018-07-04T22:26:08.425Z,53.90
2018-07-04T22:28:54.949Z,53.80
2018-07-04T22:31:42.097Z,53.80
2018-07-04T22:34:28.783Z,54.10
2018-07-04T22:37:15.427Z,54.10
2018-07-04T22:40:01.908Z,53.80
2018-07-04T22:42:48.611Z,54.60
2018-07-04T22:45:35.157Z,54.80
2018-07-04T22:48:22.144Z,54.30
2018-07-04T22:51:08.732Z,54.30
2018-07-04T22:53:55.577Z,54.20
2018-07-04T22:56:42.224Z,54.30
2018-07-04T22:59:28.698Z,54.30
2018-07-04T23:02:15.416Z,54.20
2018-07-04T23:05:01.984Z,54.90
2018-07-04T23:07:48.731Z,54.30
2018-07-04T23:10:35.243Z,55.30
2018-07-04T23:13:22.008Z,55.50
2018-07-04T23:16:08.801Z,56.00
2018-07-04T23:18:55.295Z,55.50
2018-07-04T23:21:41.688Z,55.80
2018-07-04T23:24:28.245Z,56.90
2018-07-04T23:27:14.656Z,55.90
2018-07-04T23:30:01.170Z,56.90
2018-07-04T23:32:47.734Z,57.50
2018-07-04T23:35:34.695Z,57.30
2018-07-04T23:38:21.254Z,57.20
2018-07-04T23:41:07.898Z,57.40
2018-07-04T23:43:54.311Z,57.60
2018-07-04T23:46:40.699Z,58.00
2018-07-04T23:49:27.409Z,57.70
2018-07-04T23:52:14.073Z,57.90
2018-07-04T23:55:01.155Z,57.80
2018-07-04T23:57:47.714Z,58.40
